createdAt,value
2023-01-04T00:04:54.648Z,75.82
2023-01-04T00:10:16.532Z,76.22
2023-01-04T00:15:38.459Z,77.33
2023-01-04T00:21:12.555Z,76.52
2023-01-04T00:26:34.591Z,77.44
2023-01-04T00:31:56.435Z,77.25
2023-01-04T00:37:18.300Z,77.34
2023-01-04T00:42:40.161Z,77.35
2023-01-04T00:48:02.040Z,76.94
2023-01-04T00:53:23.908Z,77.69
2023-01-04T00:58:45.740Z,78.37
2023-01-04T01:04:08.165Z,78.00
2023-01-04T01:09:30.110Z,78.96
2023-01-04T01:14:54.797Z,79.32
2023-01-04T01:20:20.529Z,79.34
2023-01-04T01:25:42.851Z,79.39
2023-01-04T01:31:16.993Z,79.76
2023-01-04T01:36:38.893Z,80.00
2023-01-04T01:42:00.729Z,79.81
2023-01-04T01:47:26.589Z,79.80
2023-01-04T01:52:50.046Z,80.31
2023-01-04T01:58:17.205Z,80.76
2023-01-04T02:03:41.730Z,80.54
2023-01-04T02:09:03.936Z,81.58
2023-01-04T02:14:26.331Z,81.50
2023-01-04T02:20:18.509Z,81.56
2023-01-04T02:25:58.626Z,82.33
2023-01-04T02:31:39.724Z,83.19
2023-01-04T02:37:18.918Z,84.12
2023-01-04T02:43:16.235Z,83.94
2023-01-04T02:48:40.092Z,85.66
2023-01-04T02:54:13.721Z,87.99
2023-01-04T02:59:55.726Z,87.27
2023-01-04T03:05:26.481Z,90.52
2023-01-04T03:11:01.744Z,91.27
2023-01-04T03:16:25.575Z,91.58
2023-01-04T03:21:47.539Z,91.93
2023-01-04T03:27:09.742Z,91.67
2023-01-04T03:32:48.270Z,93.29
2023-01-04T03:43:41.071Z,92.81
2023-01-04T03:49:07.734Z,93.25
2023-01-04T03:54:38.749Z,93.66
2023-01-04T04:00:14.537Z,93.44
2023-01-04T04:05:40.725Z,94.54
2023-01-04T04:11:03.541Z,94.32
2023-01-04T04:16:26.731Z,95.35
2023-01-04T04:21:48.583Z,95.30
2023-01-04T04:27:10.481Z,95.83
2023-01-04T04:32:32.334Z,95.54
2023-01-04T04:37:54.216Z,95.87
2023-01-04T04:43:16.090Z,95.91
2023-01-04T04:48:37.930Z,95.98
2023-01-04T04:53:59.890Z,96.21
2023-01-04T04:59:21.761Z,96.17
2023-01-04T05:04:43.583Z,97.01
2023-01-04T05:10:05.808Z,98.68
2023-01-04T05:15:39.794Z,98.23
2023-01-04T05:21:01.830Z,98.44
2023-01-04T05:26:23.670Z,98.51
2023-01-04T05:31:45.597Z,98.51
2023-01-04T05:37:07.431Z,98.49
2023-01-04T05:42:29.259Z,100.00
2023-01-04T05:47:52.742Z,99.88
2023-01-04T05:53:16.117Z,100.00
2023-01-04T05:58:37.963Z,100.00
2023-01-04T06:03:59.822Z,100.00
2023-01-04T06:09:21.717Z,100.00
2023-01-04T06:14:43.550Z,100.00
2023-01-04T06:20:09.366Z,100.00
2023-01-04T06:25:31.243Z,100.00
2023-01-04T06:30:53.107Z,100.00
2023-01-04T06:36:20.059Z,100.00
2023-01-04T06:41:42.342Z,100.00
2023-01-04T06:47:04.213Z,100.00
2023-01-04T06:52:26.204Z,100.00
2023-01-04T06:57:48.060Z,100.00
2023-01-04T07:03:14.203Z,100.00
2023-01-04T07:08:37.464Z,100.00
2023-01-04T07:13:59.287Z,100.00
2023-01-04T07:19:21.263Z,100.00
2023-01-04T07:24:43.087Z,100.00
2023-01-04T07:30:05.417Z,99.91
2023-01-04T07:35:27.366Z,93.04
2023-01-04T07:40:56.219Z,84.60
2023-01-04T07:46:18.895Z,77.11
2023-01-04T07:51:40.865Z,71.79
2023-01-04T07:57:02.686Z,71.58
2023-01-04T08:02:24.623Z,84.96
2023-01-04T08:07:46.580Z,89.10
2023-01-04T08:13:08.431Z,86.07
2023-01-04T08:18:30.280Z,71.52
2023-01-04T08:23:53.745Z,61.46
2023-01-04T08:29:15.662Z,59.69
2023-01-04T08:34:37.537Z,60.88
2023-01-04T08:39:59.357Z,55.95
2023-01-04T08:45:21.200Z,52.98
2023-01-04T08:50:43.066Z,49.15
2023-01-04T08:56:05.243Z,61.45
2023-01-04T09:01:27.682Z,49.61
2023-01-04T09:06:49.848Z,50.88
2023-01-04T09:12:11.651Z,47.57
2023-01-04T09:17:33.458Z,46.32
2023-01-04T09:22:57.587Z,49.11
2023-01-04T09:28:19.441Z,55.31
2023-01-04T09:34:12.629Z,62.94
2023-01-04T09:39:24.422Z,65.55
2023-01-04T09:50:52.132Z,66.36
2023-01-04T09:56:23.901Z,64.66
2023-01-04T10:01:52.502Z,61.04
2023-01-04T10:07:31.345Z,63.15
2023-01-04T10:13:34.340Z,69.51
2023-01-04T10:19:07.986Z,71.92
2023-01-04T10:25:06.993Z,72.09
2023-01-04T10:31:40.171Z,72.53
2023-01-04T10:36:57.786Z,73.69
2023-01-04T10:42:36.928Z,75.41
2023-01-04T10:48:07.209Z,75.00
2023-01-04T10:53:54.077Z,76.20
2023-01-04T10:59:33.141Z,77.70
2023-01-04T11:05:04.279Z,78.37
2023-01-04T11:11:05.886Z,78.01
2023-01-04T11:16:29.724Z,78.00
2023-01-04T11:21:58.549Z,77.71
2023-01-04T11:27:27.303Z,77.38
2023-01-04T11:32:54.884Z,78.04
2023-01-04T11:38:22.304Z,78.12
2023-01-04T11:44:05.606Z,78.43
2023-01-04T11:49:34.420Z,78.90
2023-01-04T11:54:56.300Z,79.40
2023-01-04T12:00:18.529Z,80.07
2023-01-04T12:05:40.940Z,82.45
2023-01-04T12:11:06.053Z,82.31
2023-01-04T12:16:47.690Z,84.05
2023-01-04T12:22:18.669Z,83.13
2023-01-04T12:27:47.873Z,83.26
2023-01-04T12:33:31.471Z,82.79
2023-01-04T12:39:02.236Z,83.02
2023-01-04T12:44:36.320Z,82.98
2023-01-04T12:49:58.120Z,83.11
2023-01-04T12:55:27.593Z,83.82
2023-01-04T13:00:52.122Z,84.00
2023-01-04T13:06:14.100Z,83.81
2023-01-04T13:11:48.237Z,84.91
2023-01-04T13:17:21.940Z,84.85
2023-01-04T13:22:53.367Z,85.37
2023-01-04T13:28:19.334Z,85.51
2023-01-04T13:33:46.527Z,86.04
2023-01-04T13:39:08.414Z,84.93
2023-01-04T13:45:18.555Z,84.57
2023-01-04T13:50:41.614Z,85.01
2023-01-04T13:56:03.970Z,85.38
2023-01-04T14:01:35.494Z,85.60
2023-01-04T14:07:01.182Z,85.67
2023-01-04T14:12:29.074Z,85.63
2023-01-04T14:17:56.035Z,85.92
2023-01-04T14:23:36.367Z,86.61
2023-01-04T14:28:58.292Z,86.16
2023-01-04T14:34:20.212Z,85.93
2023-01-04T14:39:42.107Z,85.45
2023-01-04T14:45:12.587Z,85.04
2023-01-04T14:50:34.400Z,84.61
2023-01-04T14:55:56.668Z,84.48
2023-01-04T15:01:18.629Z,84.67
2023-01-04T15:06:48.987Z,85.88
2023-01-04T15:12:10.752Z,86.27
2023-01-04T15:17:32.653Z,86.55
2023-01-04T15:22:54.538Z,87.07
2023-01-04T15:28:16.382Z,87.77
2023-01-04T15:33:38.529Z,88.71
2023-01-04T15:39:00.382Z,89.63
2023-01-04T15:44:22.207Z,89.72
2023-01-04T15:49:44.084Z,91.09
2023-01-04T15:55:06.262Z,91.00
2023-01-04T16:00:28.104Z,92.02
2023-01-04T16:05:50.003Z,90.78
2023-01-04T16:11:20.725Z,91.27
2023-01-04T16:16:42.621Z,91.60
2023-01-04T16:22:04.544Z,92.51
2023-01-04T16:27:31.138Z,92.67
2023-01-04T16:32:55.041Z,92.29
2023-01-04T16:38:16.879Z,92.81
2023-01-04T16:43:49.990Z,93.38
2023-01-04T16:49:14.759Z,94.26
2023-01-04T16:54:36.834Z,95.20
2023-01-04T16:59:58.702Z,96.34
2023-01-04T17:05:20.609Z,98.01
2023-01-04T17:10:42.600Z,97.08
2023-01-04T17:16:05.620Z,97.84
2023-01-04T17:21:34.301Z,100.00
2023-01-04T17:26:56.738Z,99.95
2023-01-04T17:32:18.599Z,100.00
2023-01-04T17:37:40.422Z,100.00
2023-01-04T17:43:02.978Z,100.00
2023-01-04T17:48:24.875Z,100.00
2023-01-04T17:53:48.440Z,100.00
2023-01-04T17:59:11.024Z,100.00
2023-01-04T18:04:32.921Z,100.00
2023-01-04T18:09:55.798Z,100.00
2023-01-04T18:15:17.767Z,100.00
2023-01-04T18:20:41.018Z,100.00
2023-01-04T18:26:05.493Z,100.00
2023-01-04T18:31:27.442Z,100.00
2023-01-04T18:36:49.409Z,100.00
2023-01-04T18:42:11.391Z,100.00
2023-01-04T18:47:33.572Z,100.00
2023-01-04T18:52:55.421Z,100.00
2023-01-04T18:58:17.312Z,100.00
2023-01-04T19:03:41.717Z,100.00
2023-01-04T19:09:06.793Z,100.00
2023-01-04T19:14:29.085Z,100.00
2023-01-04T19:19:51.611Z,100.00
2023-01-04T19:25:13.407Z,100.00
2023-01-04T19:30:38.595Z,100.00
2023-01-04T19:36:00.551Z,100.00
2023-01-04T19:41:33.078Z,100.00
2023-01-04T19:46:55.855Z,100.00
2023-01-04T19:52:17.743Z,100.00
2023-01-04T19:57:39.720Z,100.00
2023-01-04T20:03:01.685Z,100.00
2023-01-04T20:08:23.650Z,100.00
2023-01-04T20:13:45.531Z,100.00
2023-01-04T20:19:07.397Z,100.00
2023-01-04T20:24:29.268Z,100.00
2023-01-04T20:29:51.308Z,100.00
2023-01-04T20:35:13.129Z,100.00
2023-01-04T20:40:36.804Z,100.00
2023-01-04T20:45:59.895Z,100.00
2023-01-04T20:51:24.635Z,100.00
2023-01-04T20:56:46.453Z,100.00
2023-01-04T21:02:12.290Z,100.00
2023-01-04T21:07:34.276Z,100.00
2023-01-04T21:12:56.153Z,100.00
2023-01-04T21:18:17.970Z,100.00
2023-01-04T21:23:41.749Z,100.00
2023-01-04T21:29:03.894Z,100.00
2023-01-04T21:34:25.747Z,100.00
2023-01-04T21:39:47.565Z,100.00
2023-01-04T21:45:09.955Z,100.00
2023-01-04T21:50:31.786Z,100.00
2023-01-04T21:56:07.760Z,100.00
2023-01-04T22:01:34.515Z,100.00
2023-01-04T22:06:56.900Z,100.00
2023-01-04T22:12:18.798Z,100.00
2023-01-04T22:17:40.687Z,100.00
2023-01-04T22:23:02.522Z,100.00
2023-01-04T22:28:25.164Z,100.00
2023-01-04T22:33:47.030Z,100.00
2023-01-04T22:39:10.143Z,100.00
2023-01-04T22:44:32.023Z,100.00
2023-01-04T22:49:53.869Z,100.00
2023-01-04T22:55:15.760Z,100.00
2023-01-04T23:00:37.648Z,100.00
2023-01-04T23:05:59.673Z,100.00
2023-01-04T23:11:21.627Z,100.00
2023-01-04T23:16:44.552Z,100.00
2023-01-04T23:22:06.616Z,100.00
2023-01-04T23:27:28.751Z,100.00
2023-01-04T23:32:50.652Z,100.00
2023-01-04T23:38:12.518Z,100.00
2023-01-04T23:43:35.401Z,100.00
2023-01-04T23:48:57.201Z,100.00
2023-01-04T23:54:19.607Z,100.00
2023-01-04T23:59:41.451Z,100.00
